createdAt,value
2024-04-23T00:00:46.116Z,96062.81
2024-04-23T00:03:13.562Z,96055.81
2024-04-23T00:05:40.216Z,96044.59
2024-04-23T00:08:07.930Z,96042.75
2024-04-23T00:10:34.786Z,96046.88
2024-04-23T00:13:04.390Z,96050.16
2024-04-23T00:15:31.063Z,96028.75
2024-04-23T00:17:59.909Z,96041.03
2024-04-23T00:20:26.937Z,96046.59
2024-04-23T00:22:53.830Z,96033.75
2024-04-23T00:25:26.458Z,96030.97
2024-04-23T00:27:53.519Z,96032.81
2024-04-23T00:30:20.349Z,96034.75
2024-04-23T00:32:47.036Z,96025.03
2024-04-23T00:35:16.565Z,96016.00
2024-04-23T00:37:43.806Z,96019.28
2024-04-23T00:40:16.737Z,96016.09
2024-04-23T00:42:46.660Z,96024.44
2024-04-23T00:45:16.383Z,96024.25
2024-04-23T00:47:43.088Z,96014.25
2024-04-23T00:50:12.699Z,96003.66
2024-04-23T00:52:39.440Z,96000.34
2024-04-23T00:55:05.993Z,96009.63
2024-04-23T00:57:32.606Z,96005.13
2024-04-23T00:59:59.161Z,96003.59
2024-04-23T01:02:27.976Z,95998.63
2024-04-23T01:04:54.621Z,96006.63
2024-04-23T01:07:21.263Z,96005.91
2024-04-23T01:09:47.955Z,95998.50
2024-04-23T01:12:15.546Z,95996.19
2024-04-23T01:14:45.019Z,96008.91
2024-04-23T01:17:12.130Z,95991.88
2024-04-23T01:19:38.853Z,95989.22
2024-04-23T01:22:08.484Z,95989.91
2024-04-23T01:24:35.053Z,95988.84
2024-04-23T01:27:02.173Z,95990.81
2024-04-23T01:29:28.743Z,95993.72
2024-04-23T01:31:56.127Z,95998.56
2024-04-23T01:34:24.232Z,95988.91
2024-04-23T01:36:52.274Z,95994.84
2024-04-23T01:39:21.331Z,95999.84
2024-04-23T01:41:48.240Z,95994.78
2024-04-23T01:44:33.346Z,95991.91
2024-04-23T01:47:15.804Z,95995.06
2024-04-23T01:49:43.037Z,95988.88
2024-04-23T01:52:10.122Z,95985.31
2024-04-23T01:54:37.486Z,95985.16
2024-04-23T01:57:04.722Z,95985.53
2024-04-23T01:59:34.177Z,95987.38
2024-04-23T02:02:01.550Z,95987.78
2024-04-23T02:04:28.758Z,95977.78
2024-04-23T02:07:02.739Z,95975.84
2024-04-23T02:09:32.976Z,95979.94
2024-04-23T02:11:59.509Z,95970.69
2024-04-23T02:14:26.044Z,95971.09
2024-04-23T02:16:52.600Z,95965.72
2024-04-23T02:19:19.466Z,95961.22
2024-04-23T02:21:46.273Z,95971.47
2024-04-23T02:24:13.895Z,95964.41
2024-04-23T02:26:43.490Z,95957.16
2024-04-23T02:29:10.059Z,95965.81
2024-04-23T02:31:39.931Z,95956.41
2024-04-23T02:34:12.625Z,95950.66
2024-04-23T02:36:39.605Z,95949.38
2024-04-23T02:39:08.759Z,95950.66
2024-04-23T02:41:35.341Z,95952.66
2024-04-23T02:44:05.010Z,95947.59
2024-04-23T02:46:31.977Z,95950.75
2024-04-23T02:48:58.582Z,95945.22
2024-04-23T02:51:28.275Z,95947.13
2024-04-23T02:53:55.337Z,95934.31
2024-04-23T02:56:30.889Z,95939.31
2024-04-23T02:59:00.126Z,95931.72
2024-04-23T03:01:26.759Z,95933.19
2024-04-23T03:03:53.437Z,95941.31
2024-04-23T03:06:23.009Z,95939.47
2024-04-23T03:08:49.687Z,95929.84
2024-04-23T03:11:17.192Z,95935.81
2024-04-23T03:13:49.167Z,95943.94
2024-04-23T03:16:20.451Z,95938.56
2024-04-23T03:18:49.618Z,95936.34
2024-04-23T03:21:16.803Z,95931.72
2024-04-23T03:23:43.806Z,95935.97
2024-04-23T03:26:10.812Z,95944.34
2024-04-23T03:28:37.836Z,95934.31
2024-04-23T03:31:04.894Z,95930.63
2024-04-23T03:33:31.972Z,95935.44
2024-04-23T03:35:58.920Z,95930.78
2024-04-23T03:38:26.062Z,95930.78
2024-04-23T03:40:53.048Z,95928.00
2024-04-23T03:43:20.062Z,95930.59
2024-04-23T03:45:47.021Z,95923.91
2024-04-23T03:48:14.057Z,95932.63
2024-04-23T03:50:41.026Z,95930.22
2024-04-23T03:53:08.300Z,95930.22
2024-04-23T03:55:41.287Z,95920.53
2024-04-23T03:58:08.552Z,95923.00
2024-04-23T04:00:35.688Z,95920.59
2024-04-23T04:03:03.970Z,95914.44
2024-04-23T04:05:30.930Z,95916.13
2024-04-23T04:08:15.028Z,95916.50
2024-04-23T04:10:43.075Z,95920.59
2024-04-23T04:13:20.858Z,95914.81
2024-04-23T04:15:50.908Z,95921.69
2024-04-23T04:18:19.264Z,95910.94
2024-04-23T04:20:46.502Z,95912.38
2024-04-23T04:23:13.693Z,95915.75
2024-04-23T04:25:48.151Z,95897.00
2024-04-23T04:28:15.225Z,95913.91
2024-04-23T04:30:42.335Z,95905.91
2024-04-23T04:33:20.171Z,95914.28
2024-04-23T04:35:48.661Z,95911.84
2024-04-23T04:38:18.733Z,95920.41
2024-04-23T04:40:45.742Z,95912.44
2024-04-23T04:43:16.020Z,95918.91
2024-04-23T04:45:43.203Z,95918.72
2024-04-23T04:48:10.636Z,95914.81
2024-04-23T04:50:41.284Z,95917.97
2024-04-23T04:53:08.291Z,95929.28
2024-04-23T04:55:35.762Z,95929.53
2024-04-23T04:58:18.313Z,95921.63
2024-04-23T05:00:45.956Z,95916.13
2024-04-23T05:03:22.595Z,95918.91
2024-04-23T05:05:49.901Z,95920.56
2024-04-23T05:08:24.608Z,95915.56
2024-04-23T05:10:54.627Z,95921.88
2024-04-23T05:13:22.181Z,95922.56
2024-04-23T05:16:08.196Z,95912.44
2024-04-23T05:18:38.771Z,95914.44
2024-04-23T05:21:05.919Z,95919.06
2024-04-23T05:23:33.620Z,95920.94
2024-04-23T05:26:03.071Z,95924.84
2024-04-23T05:28:32.970Z,95925.41
2024-04-23T05:31:00.413Z,95921.69
2024-04-23T05:33:28.510Z,95921.16
2024-04-23T05:35:55.730Z,95934.13
2024-04-23T05:38:22.715Z,95921.50
2024-04-23T05:40:49.844Z,95924.31
2024-04-23T05:43:18.851Z,95928.38
2024-04-23T05:45:48.150Z,95915.31
2024-04-23T05:48:19.649Z,95918.97
2024-04-23T05:50:56.916Z,95920.88
2024-04-23T05:53:27.664Z,95920.06
2024-04-23T05:56:00.333Z,95921.00
2024-04-23T05:58:30.494Z,95919.63
2024-04-23T06:01:00.578Z,95918.22
2024-04-23T06:03:28.924Z,95915.31
2024-04-23T06:05:56.149Z,95909.53
2024-04-23T06:08:23.538Z,95914.50
2024-04-23T06:10:52.283Z,95918.16
2024-04-23T06:13:20.636Z,95909.69
2024-04-23T06:15:57.014Z,95924.78
2024-04-23T06:18:25.375Z,95913.81
2024-04-23T06:20:53.434Z,95926.88
2024-04-23T06:23:20.873Z,95921.84
2024-04-23T06:25:48.174Z,95923.34
2024-04-23T06:28:25.197Z,95927.94
2024-04-23T06:31:14.295Z,95928.91
2024-04-23T06:33:50.943Z,95939.66
2024-04-23T06:36:17.947Z,95930.75
2024-04-23T06:38:54.481Z,95926.84
2024-04-23T06:41:34.202Z,95929.41
2024-04-23T06:44:04.387Z,95939.78
2024-04-23T06:46:31.607Z,95926.78
2024-04-23T06:49:03.475Z,95921.19
2024-04-23T06:51:30.695Z,95919.75
2024-04-23T06:54:01.606Z,95916.97
2024-04-23T06:56:29.236Z,95916.13
2024-04-23T06:58:59.254Z,95924.09
2024-04-23T07:01:29.309Z,95920.94
2024-04-23T07:03:56.993Z,95906.16
2024-04-23T07:06:32.031Z,95908.50
2024-04-23T07:08:59.167Z,95905.63
2024-04-23T07:11:26.136Z,95906.88
2024-04-23T07:13:56.063Z,95904.88
2024-04-23T07:16:23.176Z,95917.13
2024-04-23T07:18:56.763Z,95929.16
2024-04-23T07:21:34.536Z,95912.91
2024-04-23T07:24:01.407Z,95907.53
2024-04-23T07:26:28.430Z,95909.78
2024-04-23T07:28:55.168Z,95909.03
2024-04-23T07:31:22.993Z,95905.00
2024-04-23T07:33:52.164Z,95908.75
2024-04-23T07:36:23.007Z,95909.25
2024-04-23T07:38:49.601Z,95920.34
2024-04-23T07:41:16.504Z,95920.13
2024-04-23T07:43:44.279Z,95911.88
2024-04-23T07:46:15.895Z,95914.78
2024-04-23T07:48:52.466Z,95914.03
2024-04-23T07:51:28.054Z,95917.53
2024-04-23T07:53:57.262Z,95922.47
2024-04-23T07:56:26.831Z,95924.41
2024-04-23T07:58:53.466Z,95924.28
2024-04-23T08:01:22.672Z,95917.34
2024-04-23T08:03:50.045Z,95929.38
2024-04-23T08:06:19.193Z,95916.63
2024-04-23T08:08:49.047Z,95935.47
2024-04-23T08:11:17.039Z,95927.59
2024-04-23T08:13:44.594Z,95932.38
2024-04-23T08:16:14.553Z,95934.53
2024-04-23T08:18:41.951Z,95932.84
2024-04-23T08:21:09.576Z,95942.63
2024-04-23T08:23:36.313Z,95945.53
2024-04-23T08:26:03.183Z,95934.94
2024-04-23T08:28:32.167Z,95948.84
2024-04-23T08:30:58.774Z,95928.66
2024-04-23T08:33:28.434Z,95938.13
2024-04-23T08:35:57.400Z,95939.06
2024-04-23T08:38:28.287Z,95932.19
2024-04-23T08:40:56.001Z,95946.06
2024-04-23T08:43:22.622Z,95943.06
2024-04-23T08:45:55.204Z,95945.38
2024-04-23T08:48:25.169Z,95951.06
2024-04-23T08:50:54.932Z,95960.06
2024-04-23T08:53:21.564Z,95962.63
2024-04-23T08:55:53.149Z,95963.25
2024-04-23T08:58:36.167Z,95964.50
2024-04-23T09:01:03.666Z,95952.25
2024-04-23T09:03:30.577Z,95960.41
2024-04-23T09:06:02.620Z,95959.00
2024-04-23T09:08:29.669Z,95943.44
2024-04-23T09:10:56.942Z,95949.25
2024-04-23T09:13:23.527Z,95939.00
2024-04-23T09:15:52.447Z,95922.81
2024-04-23T09:18:19.563Z,95934.63
2024-04-23T09:20:48.404Z,95937.63
2024-04-23T09:23:15.929Z,95953.78
2024-04-23T09:25:43.008Z,95948.25
2024-04-23T09:28:12.704Z,95925.13
2024-04-23T09:30:44.065Z,95922.81
2024-04-23T09:33:11.553Z,95937.41
2024-04-23T09:35:42.880Z,95922.72
2024-04-23T09:38:13.166Z,95925.00
2024-04-23T09:40:49.578Z,95921.31
2024-04-23T09:43:17.879Z,95934.75
2024-04-23T09:45:44.592Z,95923.56
2024-04-23T09:48:14.242Z,95904.03
2024-04-23T09:50:42.668Z,95936.47
2024-04-23T09:53:09.964Z,95896.66
2024-04-23T09:55:44.198Z,95901.03
2024-04-23T09:58:11.212Z,95900.38
2024-04-23T10:00:40.797Z,95896.44
2024-04-23T10:03:09.625Z,95885.88
2024-04-23T10:05:40.254Z,95908.22
2024-04-23T10:08:18.832Z,95916.00
2024-04-23T10:10:46.636Z,95893.19
2024-04-23T10:13:16.826Z,95897.47
2024-04-23T10:15:55.524Z,95902.50
2024-04-23T10:18:22.969Z,95902.97
2024-04-23T10:20:50.242Z,95886.03
2024-04-23T10:23:17.826Z,95889.13
2024-04-23T10:25:48.702Z,95894.84
2024-04-23T10:28:18.589Z,95891.31
2024-04-23T10:30:48.042Z,95882.13
2024-04-23T10:33:14.721Z,95881.47
2024-04-23T10:35:42.682Z,95876.81
2024-04-23T10:38:09.280Z,95903.66
2024-04-23T10:40:46.369Z,95901.34
2024-04-23T10:43:22.810Z,95904.69
2024-04-23T10:48:39.232Z,95891.41
2024-04-23T10:51:09.728Z,95900.69
2024-04-23T10:53:38.820Z,95888.78
2024-04-23T10:56:08.489Z,95892.88
2024-04-23T10:58:37.452Z,95885.06
2024-04-23T11:01:04.557Z,95890.66
2024-04-23T11:03:31.658Z,95900.16
2024-04-23T11:05:59.296Z,95896.47
2024-04-23T11:08:26.018Z,95885.06
2024-04-23T11:10:52.922Z,95881.91
2024-04-23T11:13:26.554Z,95887.38
2024-04-23T11:15:53.457Z,95892.72
2024-04-23T11:18:23.928Z,95880.31
2024-04-23T11:21:00.013Z,95893.81
2024-04-23T11:23:27.888Z,95886.25
2024-04-23T11:25:59.404Z,95883.41
2024-04-23T11:28:27.586Z,95889.94
2024-04-23T11:30:55.053Z,95891.41
2024-04-23T11:33:21.773Z,95894.16
2024-04-23T11:35:48.443Z,95886.75
2024-04-23T11:38:15.316Z,95880.78
2024-04-23T11:40:45.157Z,95889.59
2024-04-23T11:43:12.151Z,95898.22
2024-04-23T11:45:38.973Z,95887.72
2024-04-23T11:48:09.046Z,95888.81
2024-04-23T11:50:42.465Z,95881.06
2024-04-23T11:53:12.212Z,95890.34
2024-04-23T11:55:39.090Z,95903.09
2024-04-23T11:58:11.730Z,95893.19
2024-04-23T12:00:38.552Z,95909.59
2024-04-23T12:03:06.228Z,95897.63
2024-04-23T12:05:36.772Z,95904.28
2024-04-23T12:08:03.584Z,95910.84
2024-04-23T12:10:30.584Z,95893.44
2024-04-23T12:12:57.317Z,95898.75
2024-04-23T12:15:24.941Z,95896.34
2024-04-23T12:17:51.968Z,95903.28
2024-04-23T12:20:18.604Z,95904.31
2024-04-23T12:22:46.449Z,95918.19
2024-04-23T12:25:13.675Z,95913.56
2024-04-23T12:27:40.359Z,95918.25
2024-04-23T12:30:07.658Z,95926.78
2024-04-23T12:32:39.239Z,95936.19
2024-04-23T12:35:10.465Z,95930.97
2024-04-23T12:37:37.294Z,95926.84
2024-04-23T12:40:07.844Z,95923.81
2024-04-23T12:42:46.543Z,95928.84
2024-04-23T12:45:17.919Z,95940.06
2024-04-23T12:47:53.697Z,95941.75
2024-04-23T12:50:20.639Z,95932.06
2024-04-23T12:52:47.316Z,95933.72
2024-04-23T12:55:14.016Z,95932.34
2024-04-23T12:57:40.982Z,95929.28
2024-04-23T13:00:08.841Z,95926.19
2024-04-23T13:02:40.869Z,95924.25
2024-04-23T13:05:10.379Z,95928.53
2024-04-23T13:07:39.553Z,95924.09
2024-04-23T13:10:09.978Z,95912.13
2024-04-23T13:12:51.532Z,95895.28
2024-04-23T13:15:28.508Z,95907.88
2024-04-23T13:17:56.928Z,95915.22
2024-04-23T13:20:24.556Z,95913.16
2024-04-23T13:23:00.690Z,95912.16
2024-04-23T13:25:31.617Z,95908.00
2024-04-23T13:28:01.829Z,95907.81
2024-04-23T13:30:30.980Z,95913.94
2024-04-23T13:32:57.654Z,95909.31
2024-04-23T13:35:25.127Z,95912.47
2024-04-23T13:38:13.292Z,95916.00
2024-04-23T13:40:40.495Z,95906.81
2024-04-23T13:43:11.490Z,95909.94
2024-04-23T13:45:51.791Z,95892.06
2024-04-23T13:48:19.009Z,95896.34
2024-04-23T13:50:50.006Z,95902.25
2024-04-23T13:53:17.323Z,95903.41
2024-04-23T13:55:51.321Z,95901.63
2024-04-23T13:58:33.038Z,95896.47
2024-04-23T14:01:03.420Z,95887.31
2024-04-23T14:03:31.674Z,95893.50
2024-04-23T14:06:02.030Z,95882.56
2024-04-23T14:08:40.290Z,95875.81
2024-04-23T14:11:07.887Z,95893.22
2024-04-23T14:13:36.435Z,95893.47
2024-04-23T14:16:04.414Z,95893.19
2024-04-23T14:18:31.978Z,95917.16
2024-04-23T14:20:59.884Z,95888.34
2024-04-23T14:23:26.993Z,95892.19
2024-04-23T14:25:57.865Z,95884.50
2024-04-23T14:28:30.939Z,95882.44
2024-04-23T14:30:57.823Z,95874.47
2024-04-23T14:33:24.641Z,95873.53
2024-04-23T14:35:51.315Z,95877.19
2024-04-23T14:38:17.913Z,95877.88
2024-04-23T14:40:48.496Z,95885.25
2024-04-23T14:43:15.374Z,95881.66
2024-04-23T14:45:42.167Z,95878.88
2024-04-23T14:48:09.095Z,95886.44
2024-04-23T14:50:39.759Z,95893.78
2024-04-23T14:53:06.742Z,95901.38
2024-04-23T14:55:36.374Z,95894.56
2024-04-23T14:58:06.776Z,95882.47
2024-04-23T15:00:36.702Z,95874.31
2024-04-23T15:03:03.379Z,95888.19
2024-04-23T15:05:30.571Z,95878.84
2024-04-23T15:08:00.575Z,95883.31
2024-04-23T15:10:31.598Z,95894.41
2024-04-23T15:13:01.372Z,95887.91
2024-04-23T15:15:30.384Z,95887.44
2024-04-23T15:18:00.074Z,95895.00
2024-04-23T15:20:27.346Z,95899.28
2024-04-23T15:22:55.971Z,95911.38
2024-04-23T15:25:22.800Z,95913.16
2024-04-23T15:27:52.419Z,95906.94
2024-04-23T15:30:18.966Z,95905.94
2024-04-23T15:32:46.041Z,95912.69
2024-04-23T15:35:13.344Z,95909.06
2024-04-23T15:37:40.281Z,95903.69
2024-04-23T15:40:07.189Z,95910.09
2024-04-23T15:42:33.866Z,95897.34
2024-04-23T15:45:03.176Z,95893.22
2024-04-23T15:47:38.369Z,95899.44
2024-04-23T15:50:05.239Z,95900.19
2024-04-23T15:52:34.628Z,95904.78
2024-04-23T15:55:01.897Z,95910.09
2024-04-23T15:57:31.724Z,95906.63
2024-04-23T15:59:58.947Z,95907.22
2024-04-23T16:02:27.349Z,95916.53
2024-04-23T16:04:53.993Z,95911.25
2024-04-23T16:07:23.284Z,95913.44
2024-04-23T16:09:49.845Z,95918.31
2024-04-23T16:12:19.434Z,95925.28
2024-04-23T16:14:46.072Z,95913.94
2024-04-23T16:17:15.213Z,95920.28
2024-04-23T16:19:44.451Z,95913.31
2024-04-23T16:22:11.059Z,95918.19
2024-04-23T16:24:40.444Z,95927.31
2024-04-23T16:27:11.432Z,95933.03
2024-04-23T16:29:40.922Z,95936.38
2024-04-23T16:32:11.391Z,95945.34
2024-04-23T16:34:38.979Z,95936.63
2024-04-23T16:37:13.410Z,95926.84
2024-04-23T16:39:44.469Z,95949.41
2024-04-23T16:42:12.234Z,95942.47
2024-04-23T16:44:48.986Z,95956.31
2024-04-23T16:47:19.045Z,95956.81
2024-04-23T16:49:55.400Z,95960.50
2024-04-23T16:52:22.864Z,95964.31
2024-04-23T16:54:49.801Z,95959.03
2024-04-23T16:57:18.050Z,95956.47
2024-04-23T16:59:51.277Z,95968.00
2024-04-23T17:02:27.854Z,95962.91
2024-04-23T17:05:09.417Z,95965.88
2024-04-23T17:07:45.561Z,95964.50
2024-04-23T17:10:19.090Z,95959.47
2024-04-23T17:12:52.340Z,95965.34
2024-04-23T17:15:22.559Z,95975.25
2024-04-23T17:17:58.286Z,95976.91
2024-04-23T17:20:34.298Z,95982.09
2024-04-23T17:23:03.083Z,95980.50
2024-04-23T17:25:30.099Z,95976.81
2024-04-23T17:28:00.780Z,95982.09
2024-04-23T17:30:33.616Z,95981.91
2024-04-23T17:33:09.756Z,95972.94
2024-04-23T17:35:37.432Z,95980.31
2024-04-23T17:38:07.683Z,95986.66
2024-04-23T17:40:35.356Z,95986.88
2024-04-23T17:43:05.260Z,95981.00
2024-04-23T17:45:32.398Z,95977.69
2024-04-23T17:48:00.131Z,95977.69
2024-04-23T17:50:26.948Z,95976.72
2024-04-23T17:52:59.090Z,95975.41
2024-04-23T17:55:26.885Z,95983.19
2024-04-23T17:57:56.111Z,95973.31
2024-04-23T18:00:28.691Z,95991.63
2024-04-23T18:02:55.566Z,95988.66
2024-04-23T18:05:24.600Z,95993.50
2024-04-23T18:07:52.432Z,95988.31
2024-04-23T18:10:19.900Z,96003.09
2024-04-23T18:12:46.569Z,96003.78
2024-04-23T18:15:17.094Z,96004.66
2024-04-23T18:17:43.700Z,96003.47
2024-04-23T18:20:13.863Z,96007.22
2024-04-23T18:22:42.411Z,95994.66
2024-04-23T18:25:12.060Z,96009.13
2024-04-23T18:27:39.278Z,96007.03
2024-04-23T18:30:05.822Z,96013.50
2024-04-23T18:32:38.630Z,96005.97
2024-04-23T18:35:05.646Z,96010.91
2024-04-23T18:37:42.433Z,96006.69
2024-04-23T18:40:10.314Z,96018.22
2024-04-23T18:42:38.319Z,96010.97
2024-04-23T18:45:11.258Z,96015.63
2024-04-23T18:47:38.595Z,96015.63
2024-04-23T18:50:05.872Z,96006.31
2024-04-23T18:52:33.416Z,96007.28
2024-04-23T18:55:00.595Z,96001.09
2024-04-23T18:57:27.612Z,96012.72
2024-04-23T18:59:57.432Z,96008.66
2024-04-23T19:02:24.135Z,96018.13
2024-04-23T19:04:50.919Z,96015.22
2024-04-23T19:07:18.268Z,96007.38
2024-04-23T19:09:50.842Z,96016.16
2024-04-23T19:12:19.489Z,96008.56
2024-04-23T19:14:46.264Z,96024.88
2024-04-23T19:17:12.931Z,96018.56
2024-04-23T19:19:45.218Z,96016.78
2024-04-23T19:22:12.028Z,96013.13
2024-04-23T19:24:39.611Z,96006.88
2024-04-23T19:27:06.508Z,96011.31
2024-04-23T19:29:36.106Z,96014.81
2024-04-23T19:32:04.950Z,96009.63
2024-04-23T19:34:31.838Z,96013.59
2024-04-23T19:36:58.402Z,96020.22
2024-04-23T19:39:25.057Z,96019.81
2024-04-23T19:41:51.880Z,96021.44
2024-04-23T19:44:18.795Z,96012.91
2024-04-23T19:46:48.089Z,96010.91
2024-04-23T19:49:15.355Z,96007.00
2024-04-23T19:51:42.544Z,96014.47
2024-04-23T19:54:09.160Z,96011.53
2024-04-23T19:56:38.427Z,96017.84
2024-04-23T19:59:09.109Z,96014.63
2024-04-23T20:01:41.989Z,96014.47
2024-04-23T20:04:20.699Z,96011.94
2024-04-23T20:06:47.315Z,96015.88
2024-04-23T20:09:14.474Z,96019.50
2024-04-23T20:11:42.342Z,96024.25
2024-04-23T20:14:09.320Z,96022.00
2024-04-23T20:16:39.421Z,96016.69
2024-04-23T20:19:08.697Z,96018.38
2024-04-23T20:21:35.262Z,96032.13
2024-04-23T20:24:02.586Z,96028.84
2024-04-23T20:26:30.212Z,96020.94
2024-04-23T20:28:59.780Z,96034.34
2024-04-23T20:31:26.373Z,96029.97
2024-04-23T20:33:56.348Z,96027.47
2024-04-23T20:36:23.903Z,96024.41
2024-04-23T20:38:50.868Z,96018.31
2024-04-23T20:41:17.533Z,96031.78
2024-04-23T20:43:47.572Z,96024.28
2024-04-23T20:46:14.917Z,96025.84
2024-04-23T20:48:42.856Z,96018.88
2024-04-23T20:51:16.638Z,96029.41
2024-04-23T20:53:43.211Z,96027.81
2024-04-23T20:56:10.984Z,96031.75
2024-04-23T20:58:44.722Z,96028.75
2024-04-23T21:01:13.542Z,96026.78
2024-04-23T21:03:40.123Z,96037.59
2024-04-23T21:06:07.657Z,96031.69
2024-04-23T21:08:34.612Z,96039.41
2024-04-23T21:11:01.743Z,96037.88
2024-04-23T21:13:30.794Z,96032.34
2024-04-23T21:16:01.842Z,96038.66
2024-04-23T21:18:29.064Z,96027.28
2024-04-23T21:20:56.006Z,96035.28
2024-04-23T21:23:23.260Z,96031.63
2024-04-23T21:25:52.554Z,96019.91
2024-04-23T21:28:19.798Z,96020.22
2024-04-23T21:30:46.740Z,96024.72
2024-04-23T21:33:19.375Z,96017.78
2024-04-23T21:35:47.406Z,96017.97
2024-04-23T21:38:14.922Z,96013.31
2024-04-23T21:40:44.969Z,96010.72
2024-04-23T21:43:12.539Z,96009.94
2024-04-23T21:45:45.935Z,96012.13
2024-04-23T21:48:16.228Z,96009.50
2024-04-23T21:50:52.838Z,96001.50
2024-04-23T21:53:26.183Z,95996.75
2024-04-23T21:55:55.551Z,96001.56
2024-04-23T21:58:31.781Z,95983.91
2024-04-23T22:01:01.380Z,95987.41
2024-04-23T22:03:28.937Z,95982.91
2024-04-23T22:05:59.083Z,95970.06
2024-04-23T22:08:40.276Z,95981.69
2024-04-23T22:11:07.930Z,95976.59
2024-04-23T22:13:34.971Z,95974.28
2024-04-23T22:16:06.192Z,95968.69
2024-04-23T22:18:33.542Z,95963.13
2024-04-23T22:21:00.568Z,95961.38
2024-04-23T22:23:28.638Z,95965.28
2024-04-23T22:25:55.921Z,95959.22
2024-04-23T22:28:25.000Z,95963.72
2024-04-23T22:30:52.907Z,95957.91
2024-04-23T22:33:20.168Z,95966.53
2024-04-23T22:35:47.505Z,95955.25
2024-04-23T22:38:15.043Z,95964.75
2024-04-23T22:40:45.226Z,95988.94
2024-04-23T22:43:12.215Z,95992.28
2024-04-23T22:45:40.181Z,95995.53
2024-04-23T22:48:07.144Z,95998.06
2024-04-23T22:50:39.262Z,96012.25
2024-04-23T22:53:09.401Z,96006.44
2024-04-23T22:55:36.618Z,96014.56
2024-04-23T22:58:03.796Z,96018.13
2024-04-23T23:00:38.434Z,96014.66
2024-04-23T23:03:05.879Z,96006.97
2024-04-23T23:05:36.407Z,96002.84
2024-04-23T23:08:03.353Z,96005.34
2024-04-23T23:10:30.345Z,96003.06
2024-04-23T23:12:57.331Z,96009.25
2024-04-23T23:15:27.246Z,96009.44
2024-04-23T23:17:57.477Z,96006.69
2024-04-23T23:20:26.386Z,96005.28
2024-04-23T23:22:54.973Z,96003.50
2024-04-23T23:25:24.351Z,96001.53
2024-04-23T23:27:52.040Z,96004.94
2024-04-23T23:30:21.429Z,96008.16
2024-04-23T23:32:48.461Z,96007.06
2024-04-23T23:35:15.652Z,96010.34
2024-04-23T23:37:51.871Z,96006.78
2024-04-23T23:40:18.909Z,96010.94
2024-04-23T23:42:45.876Z,96002.84
2024-04-23T23:45:12.849Z,95993.06
2024-04-23T23:47:40.340Z,95997.63
2024-04-23T23:50:07.527Z,95996.72
2024-04-23T23:52:34.157Z,96008.41
2024-04-23T23:55:00.938Z,96003.03
2024-04-23T23:57:27.521Z,96003.78
2024-04-23T23:59:57.120Z,95999.31
